createdAt,value
2023-05-13T00:00:52.469Z,94682.00
2023-05-13T00:01:52.476Z,94680.00
2023-05-13T00:02:52.626Z,94680.00
2023-05-13T00:03:52.581Z,94680.00
2023-05-13T00:04:52.593Z,94682.00
2023-05-13T00:05:52.653Z,94680.00
2023-05-13T00:06:52.751Z,94682.00
2023-05-13T00:07:52.653Z,94680.00
2023-05-13T00:08:52.862Z,94680.00
2023-05-13T00:09:52.691Z,94682.00
2023-05-13T00:10:52.698Z,94682.00
2023-05-13T00:11:52.759Z,94682.00
2023-05-13T00:12:52.810Z,94680.00
2023-05-13T00:13:52.814Z,94680.00
2023-05-13T00:14:52.865Z,94682.00
2023-05-13T00:15:52.921Z,94682.00
2023-05-13T00:16:52.938Z,94682.00
2023-05-13T00:17:52.967Z,94682.00
2023-05-13T00:18:52.967Z,94678.00
2023-05-13T00:19:53.008Z,94680.00
2023-05-13T00:20:53.054Z,94680.00
2023-05-13T00:21:53.063Z,94682.00
2023-05-13T00:22:53.126Z,94684.00
2023-05-13T00:23:53.142Z,94684.00
2023-05-13T00:24:53.146Z,94684.00
2023-05-13T00:25:53.367Z,94684.00
2023-05-13T00:26:53.399Z,94682.00
2023-05-13T00:27:53.264Z,94686.00
2023-05-13T00:28:53.279Z,94684.00
2023-05-13T00:29:53.343Z,94682.00
2023-05-13T00:30:53.458Z,94682.00
2023-05-13T00:31:53.438Z,94684.00
2023-05-13T00:32:53.547Z,94676.00
2023-05-13T00:33:53.535Z,94682.00
2023-05-13T00:34:53.524Z,94678.00
2023-05-13T00:35:53.528Z,94676.00
2023-05-13T00:36:53.587Z,94678.00
2023-05-13T00:37:53.568Z,94680.00
2023-05-13T00:38:53.599Z,94676.00
2023-05-13T00:39:53.653Z,94676.00
2023-05-13T00:40:53.659Z,94678.00
2023-05-13T00:41:53.720Z,94676.00
2023-05-13T00:42:53.718Z,94676.00
2023-05-13T00:43:53.787Z,94676.00
2023-05-13T00:44:53.792Z,94676.00
2023-05-13T00:45:53.894Z,94678.00
2023-05-13T00:46:54.012Z,94678.00
2023-05-13T00:47:54.000Z,94678.00
2023-05-13T00:48:53.925Z,94676.00
2023-05-13T00:49:53.986Z,94674.00
2023-05-13T00:50:54.505Z,94676.00
2023-05-13T00:51:54.046Z,94676.00
2023-05-13T00:52:54.066Z,94676.00
2023-05-13T00:53:54.049Z,94678.00
2023-05-13T00:54:54.118Z,94678.00
2023-05-13T00:55:54.124Z,94676.00
2023-05-13T00:56:54.181Z,94680.00
2023-05-13T00:57:54.184Z,94678.00
2023-05-13T00:58:54.190Z,94680.00
2023-05-13T00:59:54.264Z,94680.00
2023-05-13T01:00:54.276Z,94682.00
2023-05-13T01:01:54.340Z,94680.00
2023-05-13T01:02:54.416Z,94680.00
2023-05-13T01:03:54.327Z,94680.00
2023-05-13T01:04:54.347Z,94680.00
2023-05-13T01:05:54.408Z,94680.00
2023-05-13T01:06:54.412Z,94684.00
2023-05-13T01:07:54.467Z,94684.00
2023-05-13T01:08:54.459Z,94686.00
2023-05-13T01:09:54.494Z,94684.00
2023-05-13T01:10:54.526Z,94688.00
2023-05-13T01:11:54.595Z,94688.00
2023-05-13T01:12:54.608Z,94686.00
2023-05-13T01:13:54.604Z,94684.00
2023-05-13T01:14:54.651Z,94688.00
2023-05-13T01:15:54.640Z,94684.00
2023-05-13T01:16:54.845Z,94688.00
2023-05-13T01:17:54.783Z,94688.00
2023-05-13T01:18:54.847Z,94688.00
2023-05-13T01:19:54.791Z,94688.00
2023-05-13T01:20:54.925Z,94690.00
2023-05-13T01:21:54.863Z,94694.00
2023-05-13T01:22:54.873Z,94690.00
2023-05-13T01:23:54.977Z,94692.00
2023-05-13T01:24:54.983Z,94692.00
2023-05-13T01:25:55.003Z,94694.00
2023-05-13T01:26:54.993Z,94694.00
2023-05-13T01:27:55.049Z,94694.00
2023-05-13T01:28:55.123Z,94694.00
2023-05-13T01:29:55.118Z,94698.00
2023-05-13T01:30:55.196Z,94698.00
2023-05-13T01:31:55.197Z,94698.00
2023-05-13T01:32:55.275Z,94698.00
2023-05-13T01:33:55.255Z,94698.00
2023-05-13T01:34:55.288Z,94700.00
2023-05-13T01:35:55.303Z,94698.00
2023-05-13T01:36:55.374Z,94700.00
2023-05-13T01:37:55.382Z,94700.00
2023-05-13T01:38:55.537Z,94698.00
2023-05-13T01:39:55.476Z,94698.00
2023-05-13T01:40:55.480Z,94698.00
2023-05-13T01:41:55.523Z,94698.00
2023-05-13T01:42:55.569Z,94698.00
2023-05-13T01:43:55.565Z,94698.00
2023-05-13T01:44:55.617Z,94700.00
2023-05-13T01:45:55.681Z,94702.00
2023-05-13T01:46:55.746Z,94696.00
2023-05-13T01:47:55.797Z,94698.00
2023-05-13T01:48:55.752Z,94700.00
2023-05-13T01:49:55.811Z,94698.00
2023-05-13T01:50:55.845Z,94698.00
2023-05-13T01:51:55.859Z,94696.00
2023-05-13T01:52:55.903Z,94696.00
2023-05-13T01:53:55.992Z,94694.00
2023-05-13T01:54:56.054Z,94694.00
2023-05-13T01:55:55.985Z,94696.00
2023-05-13T01:56:56.038Z,94698.00
2023-05-13T01:57:56.092Z,94700.00
2023-05-13T01:58:56.140Z,94698.00
2023-05-13T01:59:56.199Z,94700.00
2023-05-13T02:00:56.153Z,94700.00
2023-05-13T02:01:56.282Z,94700.00
2023-05-13T02:02:56.381Z,94700.00
2023-05-13T02:03:56.362Z,94700.00
2023-05-13T02:04:56.341Z,94700.00
2023-05-13T02:05:56.361Z,94696.00
2023-05-13T02:06:56.376Z,94698.00
2023-05-13T02:07:56.434Z,94698.00
2023-05-13T02:08:56.468Z,94698.00
2023-05-13T02:09:56.497Z,94696.00
2023-05-13T02:10:56.529Z,94696.00
2023-05-13T02:11:56.554Z,94696.00
2023-05-13T02:12:56.594Z,94700.00
2023-05-13T02:13:56.664Z,94696.00
2023-05-13T02:14:56.641Z,94696.00
2023-05-13T02:15:56.775Z,94698.00
2023-05-13T02:16:56.759Z,94694.00
2023-05-13T02:17:56.779Z,94694.00
2023-05-13T02:18:56.876Z,94694.00
2023-05-13T02:19:56.810Z,94696.00
2023-05-13T02:20:57.456Z,94694.00
2023-05-13T02:21:56.900Z,94694.00
2023-05-13T02:22:56.981Z,94694.00
2023-05-13T02:23:56.928Z,94694.00
2023-05-13T02:24:56.992Z,94696.00
2023-05-13T02:25:57.042Z,94694.00
2023-05-13T02:26:57.051Z,94698.00
2023-05-13T02:27:57.064Z,94698.00
2023-05-13T02:28:57.099Z,94698.00
2023-05-13T02:29:57.121Z,94694.00
2023-05-13T02:30:57.150Z,94698.00
2023-05-13T02:31:57.308Z,94694.00
2023-05-13T02:32:57.248Z,94694.00
2023-05-13T02:33:57.246Z,94696.00
2023-05-13T02:34:57.280Z,94694.00
2023-05-13T02:35:57.357Z,94694.00
2023-05-13T02:36:57.404Z,94696.00
2023-05-13T02:37:57.431Z,94696.00
2023-05-13T02:38:57.487Z,94696.00
2023-05-13T02:39:57.530Z,94692.00
2023-05-13T02:40:57.536Z,94694.00
2023-05-13T02:41:57.592Z,94694.00
2023-05-13T02:42:57.612Z,94696.00
2023-05-13T02:43:57.617Z,94694.00
2023-05-13T02:44:57.729Z,94694.00
2023-05-13T02:45:57.747Z,94694.00
2023-05-13T02:46:57.726Z,94694.00
2023-05-13T02:47:57.815Z,94696.00
2023-05-13T02:48:57.821Z,94696.00
2023-05-13T02:49:57.867Z,94698.00
2023-05-13T02:50:57.928Z,94696.00
2023-05-13T02:51:57.957Z,94698.00
2023-05-13T02:52:57.990Z,94696.00
2023-05-13T02:53:58.036Z,94698.00
2023-05-13T02:54:58.091Z,94698.00
2023-05-13T02:55:58.158Z,94698.00
2023-05-13T02:56:58.148Z,94700.00
2023-05-13T02:57:58.231Z,94698.00
2023-05-13T02:58:58.261Z,94698.00
2023-05-13T02:59:58.277Z,94698.00
2023-05-13T03:00:58.291Z,94694.00
2023-05-13T03:01:58.352Z,94696.00
2023-05-13T03:02:58.645Z,94700.00
2023-05-13T03:03:58.363Z,94698.00
2023-05-13T03:04:58.409Z,94700.00
2023-05-13T03:05:58.452Z,94696.00
2023-05-13T03:06:58.485Z,94696.00
2023-05-13T03:07:58.515Z,94698.00
2023-05-13T03:08:58.561Z,94698.00
2023-05-13T03:09:58.609Z,94700.00
2023-05-13T03:10:58.658Z,94698.00
2023-05-13T03:11:58.664Z,94698.00
2023-05-13T03:12:58.739Z,94696.00
2023-05-13T03:13:58.779Z,94696.00
2023-05-13T03:14:58.822Z,94696.00
2023-05-13T03:15:58.857Z,94696.00
2023-05-13T03:16:58.904Z,94696.00
2023-05-13T03:17:58.932Z,94698.00
2023-05-13T03:18:58.983Z,94696.00
2023-05-13T03:19:58.993Z,94696.00
2023-05-13T03:20:59.035Z,94698.00
2023-05-13T03:21:59.101Z,94700.00
2023-05-13T03:22:59.130Z,94702.00
2023-05-13T03:23:59.166Z,94700.00
2023-05-13T03:24:59.261Z,94700.00
2023-05-13T03:25:59.209Z,94704.00
2023-05-13T03:27:00.056Z,94704.00
2023-05-13T03:27:59.404Z,94704.00
2023-05-13T03:28:59.397Z,94704.00
2023-05-13T03:29:59.411Z,94705.00
2023-05-13T03:30:59.537Z,94705.00
2023-05-13T03:31:59.468Z,94707.00
2023-05-13T03:32:59.569Z,94707.00
2023-05-13T03:33:59.530Z,94709.00
2023-05-13T03:34:59.609Z,94709.00
2023-05-13T03:35:59.652Z,94711.00
2023-05-13T03:36:59.656Z,94711.00
2023-05-13T03:37:59.719Z,94711.00
2023-05-13T03:38:59.773Z,94713.00
2023-05-13T03:39:59.779Z,94711.00
2023-05-13T03:40:59.839Z,94711.00
2023-05-13T03:41:59.903Z,94711.00
2023-05-13T03:42:59.905Z,94711.00
2023-05-13T03:43:59.963Z,94711.00
2023-05-13T03:45:00.017Z,94715.00
2023-05-13T03:46:00.023Z,94715.00
2023-05-13T03:47:00.143Z,94713.00
2023-05-13T03:48:00.230Z,94713.00
2023-05-13T03:49:00.160Z,94715.00
2023-05-13T03:50:00.231Z,94715.00
2023-05-13T03:51:00.272Z,94715.00
2023-05-13T03:52:00.276Z,94717.00
2023-05-13T03:53:00.351Z,94717.00
2023-05-13T03:54:00.348Z,94719.00
2023-05-13T03:55:00.419Z,94719.00
2023-05-13T03:56:00.469Z,94719.00
2023-05-13T03:57:00.465Z,94721.00
2023-05-13T03:58:00.512Z,94721.00
2023-05-13T03:59:00.558Z,94721.00
2023-05-13T04:00:00.626Z,94717.00
2023-05-13T04:01:00.717Z,94719.00
2023-05-13T04:02:00.701Z,94721.00
2023-05-13T04:03:00.749Z,94719.00
2023-05-13T04:04:00.768Z,94719.00
2023-05-13T04:05:01.095Z,94717.00
2023-05-13T04:06:00.834Z,94721.00
2023-05-13T04:07:00.892Z,94723.00
2023-05-13T04:08:00.871Z,94723.00
2023-05-13T04:09:00.956Z,94723.00
2023-05-13T04:10:01.066Z,94727.00
2023-05-13T04:11:01.019Z,94729.00
2023-05-13T04:12:01.085Z,94729.00
2023-05-13T04:13:01.082Z,94727.00
2023-05-13T04:14:01.148Z,94727.00
2023-05-13T04:15:01.219Z,94729.00
2023-05-13T04:16:01.211Z,94731.00
2023-05-13T04:17:01.290Z,94733.00
2023-05-13T04:18:01.377Z,94733.00
2023-05-13T04:19:01.352Z,94735.00
2023-05-13T04:20:01.413Z,94733.00
2023-05-13T04:21:01.394Z,94735.00
2023-05-13T04:22:01.462Z,94737.00
2023-05-13T04:23:01.460Z,94741.00
2023-05-13T04:24:01.517Z,94739.00
2023-05-13T04:25:01.615Z,94739.00
2023-05-13T04:26:01.632Z,94741.00
2023-05-13T04:27:01.721Z,94741.00
2023-05-13T04:28:01.676Z,94743.00
2023-05-13T04:29:01.722Z,94743.00
2023-05-13T04:30:01.810Z,94743.00
2023-05-13T04:31:01.757Z,94743.00
2023-05-13T04:32:01.865Z,94745.00
2023-05-13T04:33:01.875Z,94745.00
2023-05-13T04:34:01.942Z,94745.00
2023-05-13T04:35:01.960Z,94747.00
2023-05-13T04:36:02.031Z,94747.00
2023-05-13T04:37:02.011Z,94749.00
2023-05-13T04:38:02.023Z,94749.00
2023-05-13T04:39:02.073Z,94752.00
2023-05-13T04:40:02.133Z,94751.00
2023-05-13T04:41:02.169Z,94752.00
2023-05-13T04:42:02.202Z,94752.00
2023-05-13T04:43:02.209Z,94752.00
2023-05-13T04:44:02.298Z,94752.00
2023-05-13T04:45:02.331Z,94754.00
2023-05-13T04:46:02.340Z,94754.00
2023-05-13T04:47:02.396Z,94754.00
2023-05-13T04:48:02.446Z,94754.00
2023-05-13T04:49:02.538Z,94754.00
2023-05-13T04:50:02.517Z,94756.00
2023-05-13T04:51:02.574Z,94754.00
2023-05-13T04:52:02.630Z,94756.00
2023-05-13T04:53:02.652Z,94756.00
2023-05-13T04:54:02.686Z,94758.00
2023-05-13T04:55:02.754Z,94756.00
2023-05-13T04:56:02.764Z,94760.00
2023-05-13T04:57:02.819Z,94758.00
2023-05-13T04:58:02.861Z,94760.00
2023-05-13T04:59:02.886Z,94762.00
2023-05-13T05:00:02.885Z,94760.00
2023-05-13T05:01:02.975Z,94762.00
2023-05-13T05:02:03.083Z,94758.00
2023-05-13T05:03:03.204Z,94764.00
2023-05-13T05:04:03.105Z,94766.00
2023-05-13T05:05:03.126Z,94768.00
2023-05-13T05:06:03.216Z,94768.00
2023-05-13T05:07:03.253Z,94770.00
2023-05-13T05:08:03.277Z,94770.00
2023-05-13T05:09:03.322Z,94772.00
2023-05-13T05:10:03.316Z,94772.00
2023-05-13T05:11:03.361Z,94772.00
2023-05-13T05:12:03.431Z,94772.00
2023-05-13T05:13:03.443Z,94774.00
2023-05-13T05:14:03.494Z,94768.00
2023-05-13T05:15:03.517Z,94772.00
2023-05-13T05:16:03.629Z,94774.00
2023-05-13T05:17:03.653Z,94772.00
2023-05-13T05:18:03.713Z,94772.00
2023-05-13T05:19:03.736Z,94772.00
2023-05-13T05:20:03.754Z,94770.00
2023-05-13T05:21:03.881Z,94772.00
2023-05-13T05:22:03.837Z,94774.00
2023-05-13T05:23:03.882Z,94774.00
2023-05-13T05:24:03.946Z,94778.00
2023-05-13T05:25:03.977Z,94778.00
2023-05-13T05:26:11.203Z,94776.00
2023-05-13T05:27:05.012Z,94778.00
2023-05-13T05:28:04.081Z,94778.00
2023-05-13T05:29:03.984Z,94782.00
2023-05-13T05:30:03.959Z,94784.00
2023-05-13T05:31:04.004Z,94780.00
2023-05-13T05:32:04.028Z,94778.00
2023-05-13T05:33:03.946Z,94782.00
2023-05-13T05:34:03.954Z,94780.00
2023-05-13T05:35:03.988Z,94782.00
2023-05-13T05:36:04.004Z,94780.00
2023-05-13T05:37:03.936Z,94784.00
2023-05-13T05:38:03.939Z,94782.00
2023-05-13T05:39:03.944Z,94784.00
2023-05-13T05:40:03.942Z,94786.00
2023-05-13T05:41:03.984Z,94782.00
2023-05-13T05:42:04.053Z,94784.00
2023-05-13T05:43:04.073Z,94786.00
2023-05-13T05:44:04.209Z,94786.00
2023-05-13T05:45:04.203Z,94786.00
2023-05-13T05:46:04.283Z,94786.00
2023-05-13T05:47:04.251Z,94786.00
2023-05-13T05:48:04.347Z,94786.00
2023-05-13T05:49:04.634Z,94786.00
2023-05-13T05:50:04.432Z,94784.00
2023-05-13T05:51:04.423Z,94784.00
2023-05-13T05:52:04.485Z,94786.00
2023-05-13T05:53:04.509Z,94788.00
2023-05-13T05:54:04.600Z,94788.00
2023-05-13T05:55:04.610Z,94788.00
2023-05-13T05:56:04.598Z,94788.00
2023-05-13T05:57:04.702Z,94790.00
2023-05-13T05:58:04.723Z,94792.00
2023-05-13T05:59:05.072Z,94788.00
2023-05-13T06:00:04.807Z,94788.00
2023-05-13T06:01:04.834Z,94788.00
2023-05-13T06:02:04.923Z,94788.00
2023-05-13T06:03:05.066Z,94790.00
2023-05-13T06:04:05.104Z,94792.00
2023-05-13T06:05:05.045Z,94792.00
2023-05-13T06:06:05.071Z,94794.00
2023-05-13T06:07:05.217Z,94790.00
2023-05-13T06:08:05.197Z,94792.00
2023-05-13T06:09:05.211Z,94792.00
2023-05-13T06:10:07.575Z,94792.00
2023-05-13T06:11:05.265Z,94792.00
2023-05-13T06:12:05.298Z,94794.00
2023-05-13T06:13:05.201Z,94792.00
2023-05-13T06:14:05.220Z,94794.00
2023-05-13T06:15:05.252Z,94794.00
2023-05-13T06:16:05.274Z,94796.00
2023-05-13T06:17:05.238Z,94796.00
2023-05-13T06:18:05.280Z,94796.00
2023-05-13T06:19:05.206Z,94794.00
2023-05-13T06:20:05.222Z,94796.00
2023-05-13T06:21:05.208Z,94796.00
2023-05-13T06:22:05.190Z,94798.00
2023-05-13T06:23:05.163Z,94796.00
2023-05-13T06:24:05.131Z,94798.00
2023-05-13T06:25:05.144Z,94798.00
2023-05-13T06:26:05.158Z,94798.00
2023-05-13T06:27:05.125Z,94799.00
2023-05-13T06:28:05.162Z,94756.00
2023-05-13T06:29:05.098Z,94762.00
2023-05-13T06:30:05.116Z,94764.00
2023-05-13T06:31:05.197Z,94764.00
2023-05-13T06:32:05.130Z,94768.00
2023-05-13T06:33:05.171Z,94766.00
2023-05-13T06:34:05.063Z,94772.00
2023-05-13T06:35:05.094Z,94772.00
2023-05-13T06:36:05.084Z,94772.00
2023-05-13T06:37:05.062Z,94770.00
2023-05-13T06:38:05.074Z,94770.00
2023-05-13T06:39:05.093Z,94770.00
2023-05-13T06:40:05.010Z,94772.00
2023-05-13T06:41:05.024Z,94774.00
2023-05-13T06:42:05.027Z,94772.00
2023-05-13T06:43:05.058Z,94774.00
2023-05-13T06:44:05.016Z,94774.00
2023-05-13T06:45:05.012Z,94774.00
2023-05-13T06:46:04.985Z,94774.00
2023-05-13T06:47:05.121Z,94772.00
2023-05-13T06:48:04.998Z,94776.00
2023-05-13T06:49:04.994Z,94776.00
2023-05-13T06:50:05.012Z,94774.00
2023-05-13T06:51:05.011Z,94776.00
2023-05-13T06:52:04.929Z,94774.00
2023-05-13T06:53:04.972Z,94774.00
2023-05-13T06:54:04.943Z,94774.00
2023-05-13T06:55:04.923Z,94776.00
2023-05-13T06:56:04.986Z,94774.00
2023-05-13T06:57:04.889Z,94776.00
2023-05-13T06:58:04.901Z,94801.00
2023-05-13T06:59:04.907Z,94801.00
2023-05-13T07:00:04.867Z,94801.00
2023-05-13T07:01:05.150Z,94801.00
2023-05-13T07:02:04.894Z,94801.00
2023-05-13T07:03:05.084Z,94799.00
2023-05-13T07:04:04.963Z,94799.00
2023-05-13T07:05:05.017Z,94798.00
2023-05-13T07:06:05.056Z,94798.00
2023-05-13T07:07:05.089Z,94798.00
2023-05-13T07:08:05.184Z,94799.00
2023-05-13T07:09:08.140Z,94801.00
2023-05-13T07:10:05.190Z,94799.00
2023-05-13T07:11:05.109Z,94801.00
2023-05-13T07:12:05.216Z,94799.00
2023-05-13T07:13:05.240Z,94801.00
2023-05-13T07:14:05.105Z,94801.00
2023-05-13T07:15:05.103Z,94801.00
2023-05-13T07:16:05.113Z,94801.00
2023-05-13T07:17:05.230Z,94801.00
2023-05-13T07:18:05.128Z,94801.00
2023-05-13T07:19:05.094Z,94801.00
2023-05-13T07:20:05.115Z,94799.00
2023-05-13T07:21:05.077Z,94801.00
2023-05-13T07:22:05.060Z,94803.00
2023-05-13T07:23:05.025Z,94805.00
2023-05-13T07:24:05.045Z,94803.00
2023-05-13T07:25:05.074Z,94803.00
2023-05-13T07:26:05.048Z,94805.00
2023-05-13T07:27:05.071Z,94803.00
2023-05-13T07:28:05.008Z,94805.00
2023-05-13T07:29:05.037Z,94801.00
2023-05-13T07:30:05.048Z,94803.00
2023-05-13T07:31:05.025Z,94803.00
2023-05-13T07:32:05.009Z,94801.00
2023-05-13T07:33:05.031Z,94799.00
2023-05-13T07:34:04.991Z,94799.00
2023-05-13T07:35:04.938Z,94801.00
2023-05-13T07:36:04.980Z,94799.00
2023-05-13T07:37:04.984Z,94799.00
2023-05-13T07:38:04.985Z,94798.00
2023-05-13T07:39:04.987Z,94799.00
2023-05-13T07:40:04.937Z,94798.00
2023-05-13T07:41:04.957Z,94794.00
2023-05-13T07:42:04.964Z,94796.00
2023-05-13T07:43:04.925Z,94796.00
2023-05-13T07:44:04.924Z,94794.00
2023-05-13T07:45:04.912Z,94794.00
2023-05-13T07:46:04.858Z,94794.00
2023-05-13T07:47:04.941Z,94794.00
2023-05-13T07:48:04.872Z,94792.00
2023-05-13T07:49:04.857Z,94790.00
2023-05-13T07:50:04.866Z,94792.00
2023-05-13T07:51:04.848Z,94792.00
2023-05-13T07:52:04.865Z,94786.00
2023-05-13T07:53:04.814Z,94788.00
2023-05-13T07:54:04.865Z,94784.00
2023-05-13T07:55:04.843Z,94788.00
2023-05-13T07:56:04.917Z,94786.00
2023-05-13T07:57:04.975Z,94786.00
2023-05-13T07:58:04.975Z,94784.00
2023-05-13T07:59:05.009Z,94784.00
2023-05-13T08:00:05.056Z,94784.00
2023-05-13T08:01:05.086Z,94782.00
2023-05-13T08:02:05.169Z,94784.00
2023-05-13T08:03:05.233Z,94784.00
2023-05-13T08:04:05.382Z,94784.00
2023-05-13T08:05:05.263Z,94782.00
2023-05-13T08:06:05.273Z,94780.00
2023-05-13T08:07:05.281Z,94780.00
2023-05-13T08:08:05.340Z,94780.00
2023-05-13T08:09:05.393Z,94780.00
2023-05-13T08:10:05.412Z,94780.00
2023-05-13T08:11:05.451Z,94778.00
2023-05-13T08:12:05.535Z,94780.00
2023-05-13T08:13:05.547Z,94778.00
2023-05-13T08:14:05.574Z,94778.00
2023-05-13T08:15:05.584Z,94780.00
2023-05-13T08:16:05.649Z,94776.00
2023-05-13T08:17:05.697Z,94776.00
2023-05-13T08:18:05.826Z,94774.00
2023-05-13T08:19:05.778Z,94774.00
2023-05-13T08:20:05.785Z,94772.00
2023-05-13T08:21:05.825Z,94770.00
2023-05-13T08:22:05.867Z,94768.00
2023-05-13T08:23:05.937Z,94768.00
2023-05-13T08:24:05.903Z,94766.00
2023-05-13T08:25:05.980Z,94766.00
2023-05-13T08:26:06.032Z,94768.00
2023-05-13T08:27:06.034Z,94768.00
2023-05-13T08:28:06.140Z,94768.00
2023-05-13T08:29:06.118Z,94766.00
2023-05-13T08:30:06.153Z,94766.00
2023-05-13T08:31:06.159Z,94764.00
2023-05-13T08:32:06.301Z,94766.00
2023-05-13T08:33:06.260Z,94764.00
2023-05-13T08:34:06.266Z,94762.00
2023-05-13T08:35:06.302Z,94760.00
2023-05-13T08:36:06.321Z,94760.00
2023-05-13T08:37:06.373Z,94760.00
2023-05-13T08:38:06.383Z,94758.00
2023-05-13T08:39:06.484Z,94762.00
2023-05-13T08:40:06.512Z,94762.00
2023-05-13T08:41:06.565Z,94760.00
2023-05-13T08:42:06.514Z,94760.00
2023-05-13T08:43:06.578Z,94760.00
2023-05-13T08:44:06.623Z,94762.00
2023-05-13T08:45:06.628Z,94758.00
2023-05-13T08:46:06.779Z,94758.00
2023-05-13T08:47:06.745Z,94758.00
2023-05-13T08:48:06.770Z,94758.00
2023-05-13T08:49:06.803Z,94754.00
2023-05-13T08:50:06.800Z,94754.00
2023-05-13T08:51:06.895Z,94754.00
2023-05-13T08:52:06.897Z,94754.00
2023-05-13T08:53:06.885Z,94752.00
2023-05-13T08:54:06.968Z,94752.00
2023-05-13T08:55:06.935Z,94751.00
2023-05-13T08:56:07.002Z,94751.00
2023-05-13T08:57:07.068Z,94749.00
2023-05-13T08:58:07.060Z,94749.00
2023-05-13T08:59:07.060Z,94749.00
2023-05-13T09:00:07.131Z,94749.00
2023-05-13T09:01:07.179Z,94749.00
2023-05-13T09:02:07.156Z,94749.00
2023-05-13T09:03:07.292Z,94745.00
2023-05-13T09:04:07.379Z,94747.00
2023-05-13T09:05:07.351Z,94747.00
2023-05-13T09:06:07.330Z,94749.00
2023-05-13T09:07:07.339Z,94749.00
2023-05-13T09:08:07.405Z,94751.00
2023-05-13T09:09:07.438Z,94751.00
2023-05-13T09:10:07.452Z,94749.00
2023-05-13T09:11:07.544Z,94749.00
2023-05-13T09:12:07.539Z,94749.00
2023-05-13T09:13:07.559Z,94747.00
2023-05-13T09:14:07.623Z,94747.00
2023-05-13T09:15:07.598Z,94747.00
2023-05-13T09:16:07.696Z,94745.00
2023-05-13T09:17:07.739Z,94745.00
2023-05-13T09:18:07.944Z,94745.00
2023-05-13T09:19:07.809Z,94747.00
2023-05-13T09:20:07.828Z,94743.00
2023-05-13T09:21:07.782Z,94745.00
2023-05-13T09:22:07.804Z,94739.00
2023-05-13T09:23:07.845Z,94737.00
2023-05-13T09:24:09.513Z,94737.00
2023-05-13T09:25:07.822Z,94737.00
2023-05-13T09:26:07.858Z,94737.00
2023-05-13T09:27:07.850Z,94735.00
2023-05-13T09:28:07.895Z,94735.00
2023-05-13T09:29:07.879Z,94735.00
2023-05-13T09:30:07.829Z,94735.00
2023-05-13T09:31:08.695Z,94735.00
2023-05-13T09:32:07.772Z,94731.00
2023-05-13T09:33:07.857Z,94733.00
2023-05-13T09:34:07.847Z,94729.00
2023-05-13T09:35:07.888Z,94733.00
2023-05-13T09:36:07.794Z,94733.00
2023-05-13T09:37:07.881Z,94731.00
2023-05-13T09:38:07.755Z,94729.00
2023-05-13T09:39:07.819Z,94729.00
2023-05-13T09:40:07.783Z,94727.00
2023-05-13T09:41:07.720Z,94727.00
2023-05-13T09:42:07.747Z,94725.00
2023-05-13T09:43:07.754Z,94723.00
2023-05-13T09:44:07.714Z,94725.00
2023-05-13T09:45:07.751Z,94725.00
2023-05-13T09:46:07.719Z,94725.00
2023-05-13T09:47:07.821Z,94721.00
2023-05-13T09:48:07.791Z,94723.00
2023-05-13T09:49:07.679Z,94725.00
2023-05-13T09:50:07.664Z,94723.00
2023-05-13T09:51:07.792Z,94723.00
2023-05-13T09:52:07.656Z,94721.00
2023-05-13T09:53:07.664Z,94723.00
2023-05-13T09:54:07.665Z,94719.00
2023-05-13T09:55:07.666Z,94721.00
2023-05-13T09:56:07.612Z,94721.00
2023-05-13T09:57:07.627Z,94719.00
2023-05-13T09:58:07.602Z,94717.00
2023-05-13T09:59:07.673Z,94719.00
2023-05-13T10:00:10.995Z,94717.00
2023-05-13T10:01:08.623Z,94717.00
2023-05-13T10:02:07.635Z,94717.00
2023-05-13T10:03:07.646Z,94715.00
2023-05-13T10:04:07.665Z,94715.00
2023-05-13T10:05:07.590Z,94713.00
2023-05-13T10:06:07.585Z,94713.00
2023-05-13T10:07:07.551Z,94715.00
2023-05-13T10:08:07.559Z,94717.00
2023-05-13T10:09:07.523Z,94717.00
2023-05-13T10:10:07.516Z,94717.00
2023-05-13T10:11:07.510Z,94715.00
2023-05-13T10:12:07.512Z,94715.00
2023-05-13T10:13:07.488Z,94711.00
2023-05-13T10:14:07.522Z,94715.00
2023-05-13T10:15:07.540Z,94713.00
2023-05-13T10:16:07.575Z,94713.00
2023-05-13T10:17:07.596Z,94713.00
2023-05-13T10:18:07.764Z,94713.00
2023-05-13T10:19:07.708Z,94711.00
2023-05-13T10:20:07.650Z,94711.00
2023-05-13T10:21:07.648Z,94713.00
2023-05-13T10:22:07.715Z,94713.00
2023-05-13T10:23:07.714Z,94676.00
2023-05-13T10:24:07.772Z,94678.00
2023-05-13T10:25:07.730Z,94676.00
2023-05-13T10:26:07.788Z,94680.00
2023-05-13T10:27:07.833Z,94676.00
2023-05-13T10:28:07.841Z,94676.00
2023-05-13T10:29:07.914Z,94676.00
2023-05-13T10:30:07.918Z,94676.00
2023-05-13T10:31:08.074Z,94676.00
2023-05-13T10:32:08.065Z,94678.00
2023-05-13T10:33:08.020Z,94678.00
2023-05-13T10:34:07.994Z,94678.00
2023-05-13T10:35:08.072Z,94672.00
2023-05-13T10:36:08.064Z,94674.00
2023-05-13T10:37:08.113Z,94676.00
2023-05-13T10:38:08.118Z,94670.00
2023-05-13T10:39:08.130Z,94668.00
2023-05-13T10:40:08.191Z,94668.00
2023-05-13T10:41:08.202Z,94666.00
2023-05-13T10:42:08.208Z,94657.00
2023-05-13T10:43:08.301Z,94657.00
2023-05-13T10:44:09.842Z,94657.00
2023-05-13T10:45:08.291Z,94657.00
2023-05-13T10:46:08.486Z,94649.00
2023-05-13T10:47:08.392Z,94653.00
2023-05-13T10:48:08.454Z,94657.00
2023-05-13T10:49:08.388Z,94655.00
2023-05-13T10:50:08.463Z,94655.00
2023-05-13T10:51:08.484Z,94657.00
2023-05-13T10:52:08.502Z,94653.00
2023-05-13T10:53:08.520Z,94655.00
2023-05-13T10:54:08.596Z,94653.00
2023-05-13T10:55:08.558Z,94653.00
2023-05-13T10:56:08.624Z,94651.00
2023-05-13T10:57:08.694Z,94655.00
2023-05-13T10:58:08.676Z,94653.00
2023-05-13T10:59:08.693Z,94649.00
2023-05-13T11:00:08.742Z,94649.00
2023-05-13T11:01:08.770Z,94651.00
2023-05-13T11:02:09.106Z,94653.00
2023-05-13T11:03:08.912Z,94653.00
2023-05-13T11:04:08.993Z,94651.00
2023-05-13T11:05:08.910Z,94651.00
2023-05-13T11:06:08.940Z,94649.00
2023-05-13T11:07:08.935Z,94649.00
2023-05-13T11:08:09.006Z,94649.00
2023-05-13T11:09:08.981Z,94647.00
2023-05-13T11:10:09.031Z,94649.00
2023-05-13T11:11:09.056Z,94645.00
2023-05-13T11:12:09.069Z,94649.00
2023-05-13T11:13:09.149Z,94647.00
2023-05-13T11:14:09.170Z,94647.00
2023-05-13T11:15:09.144Z,94647.00
2023-05-13T11:16:09.201Z,94643.00
2023-05-13T11:17:09.219Z,94643.00
2023-05-13T11:18:09.263Z,94645.00
2023-05-13T11:19:09.266Z,94645.00
2023-05-13T11:20:09.720Z,94643.00
2023-05-13T11:21:09.321Z,94645.00
2023-05-13T11:22:09.332Z,94641.00
2023-05-13T11:23:09.356Z,94643.00
2023-05-13T11:24:09.397Z,94641.00
2023-05-13T11:25:10.262Z,94639.00
2023-05-13T11:26:11.935Z,94643.00
2023-05-13T11:27:09.467Z,94637.00
2023-05-13T11:28:09.412Z,94641.00
2023-05-13T11:29:09.412Z,94637.00
2023-05-13T11:30:09.394Z,94635.00
2023-05-13T11:31:09.448Z,94637.00
2023-05-13T11:32:09.382Z,94637.00
2023-05-13T11:33:09.434Z,94635.00
2023-05-13T11:34:09.776Z,94633.00
2023-05-13T11:35:09.416Z,94635.00
2023-05-13T11:36:10.238Z,94637.00
2023-05-13T11:37:09.418Z,94633.00
2023-05-13T11:38:09.370Z,94633.00
2023-05-13T11:39:09.387Z,94629.00
2023-05-13T11:40:09.339Z,94629.00
2023-05-13T11:41:09.348Z,94627.00
2023-05-13T11:42:09.367Z,94631.00
2023-05-13T11:43:09.360Z,94629.00
2023-05-13T11:44:09.318Z,94627.00
2023-05-13T11:45:09.726Z,94625.00